Time;durP1;ratioP1;P1;durP2;ratioP2;P2;SDS_P1;SDS_P2;PMS_P1;PMS_P2;Temp;Humidity;BMP_temperature;BMP_pressure;BME280_temperature;BME280_humidity;BME280_pressure;Samples;Min_cycle;Max_cycle;Signal;HPM_P1;HPM_P2
2022/01/15 00:00:28;;;;;;;101.68;24.45;;;;;;;4.07;89.18;103254.50;5052776;28;20391;-91
2022/01/15 00:02:54;;;;;;;105.85;23.80;;;;;;;4.06;89.10;103259.72;5054866;28;20024;-92
2022/01/15 00:05:20;;;;;;;146.85;26.42;;;;;;;3.94;88.94;103256.75;5053546;28;20211;-92
2022/01/15 00:07:48;;;;;;;100.80;26.90;;;;;;;3.99;89.44;103257.75;5065482;28;20025;-92
2022/01/15 00:10:17;;;;;;;112.10;26.48;;;;;;;3.92;89.46;103237.53;5064897;28;20055;-92
2022/01/15 00:12:43;;;;;;;88.40;25.52;;;;;;;3.94;89.66;103225.34;5053871;28;20024;-92
2022/01/15 00:15:18;;;;;;;103.28;26.10;;;;;;;4.01;89.31;103237.72;5066083;28;20074;-92
2022/01/15 00:20:38;;;;;;;111.55;26.55;;;;;;;3.98;89.55;103232.44;5047072;28;20090;-91
2022/01/15 00:23:04;;;;;;;155.02;28.98;;;;;;;3.99;89.37;103240.31;5054773;28;20029;-92
2022/01/15 00:25:31;;;;;;;133.55;26.05;;;;;;;4.05;89.42;103243.09;5055503;28;20128;-92
2022/01/15 00:27:58;;;;;;;149.85;28.90;;;;;;;3.99;89.64;103229.84;5065417;28;20033;-92
2022/01/15 00:30:23;;;;;;;109.53;25.88;;;;;;;4.06;89.39;103234.41;5052822;28;20040;-92
2022/01/15 00:32:51;;;;;;;113.43;24.75;;;;;;;4.01;89.32;103225.56;5064954;28;20068;-92
2022/01/15 00:35:17;;;;;;;116.32;26.73;;;;;;;3.99;89.35;103223.75;5065221;28;20126;-92
2022/01/15 00:37:43;;;;;;;95.95;24.48;;;;;;;3.97;89.21;103218.47;5065915;28;20488;-92
2022/01/15 00:40:14;;;;;;;107.38;26.13;;;;;;;4.03;89.66;103231.72;5052765;28;20055;-92
2022/01/15 00:42:40;;;;;;;90.22;22.83;;;;;;;3.97;89.28;103218.47;5051713;28;20024;-92
2022/01/15 00:45:11;;;;;;;104.82;25.00;;;;;;;4.03;89.39;103226.47;5052878;28;20085;-92
2022/01/15 00:47:36;;;;;;;132.50;27.23;;;;;;;3.97;89.23;103218.47;5053066;28;20029;-92
2022/01/15 00:50:04;;;;;;;115.88;26.10;;;;;;;3.96;89.26;103210.56;5065158;28;20391;-92
2022/01/15 00:52:30;;;;;;;94.03;24.90;;;;;;;3.93;89.53;103205.28;5056281;28;20035;-92
2022/01/15 00:54:55;;;;;;;90.70;23.88;;;;;;;3.92;89.42;103193.03;5054902;28;20028;-92
2022/01/15 00:57:21;;;;;;;87.72;24.80;;;;;;;3.97;89.36;103199.28;5063692;28;20027;-92
2022/01/15 00:59:46;;;;;;;84.68;22.10;;;;;;;3.92;89.14;103195.66;5050877;28;20061;-92
2022/01/15 01:02:12;;;;;;;82.93;22.52;;;;;;;3.88;89.38;103194.69;5049778;28;20028;-92
2022/01/15 01:04:37;;;;;;;88.75;26.15;;;;;;;3.84;89.30;103190.22;5063536;28;20075;-91
2022/01/15 01:07:04;;;;;;;84.32;22.35;;;;;;;3.92;89.06;103204.41;5052315;28;20059;-92
2022/01/15 01:09:47;;;;;;;84.15;22.13;;;;;;;3.88;89.13;103204.28;5063142;28;20047;-92
2022/01/15 01:12:27;;;;;;;82.28;21.92;;;;;;;3.84;88.90;103192.84;5061397;28;20483;-92
2022/01/15 01:20:36;;;;;;;95.72;20.50;;;;;;;3.84;89.38;103193.72;5063123;28;20300;-92
2022/01/15 01:23:01;;;;;;;105.95;23.95;;;;;;;3.77;89.67;103170.84;5052634;28;20414;-92
2022/01/15 01:25:33;;;;;;;86.80;22.63;;;;;;;3.79;89.34;103170.91;5062038;28;20299;-92
2022/01/15 01:28:06;;;;;;;102.63;23.05;;;;;;;3.79;89.48;103176.13;5054325;28;20048;-91
2022/01/15 01:30:38;;;;;;;89.47;23.95;;;;;;;3.83;89.08;103178.88;5063495;28;21426;-92
2022/01/15 01:33:53;;;;;;;122.78;25.88;;;;;;;3.80;89.40;103181.41;5065156;28;20048;-92
2022/01/15 01:36:05;;;;;;;99.63;24.90;;;;;;;3.79;89.42;103176.13;5052043;28;20129;-91
2022/01/15 01:38:55;;;;;;;83.75;23.20;;;;;;;3.81;89.22;103172.69;5045490;28;20024;-92
2022/01/15 01:41:20;;;;;;;96.18;23.35;;;;;;;3.79;89.07;103168.28;5061906;28;20036;-91
2022/01/15 01:43:53;;;;;;;89.63;22.50;;;;;;;3.83;89.38;103175.38;5064670;28;20015;-92
2022/01/15 01:48:46;;;;;;;89.70;24.20;;;;;;;3.78;89.48;103170.03;5063537;28;20037;-92
2022/01/15 01:51:36;;;;;;;73.63;18.98;;;;;;;3.88;88.79;103167.63;5053785;28;20519;-92
2022/01/15 01:54:17;;;;;;;92.72;22.30;;;;;;;3.77;89.19;103163.00;5050727;28;20027;-92
2022/01/15 01:56:43;;;;;;;78.22;19.52;;;;;;;3.81;89.34;103167.47;5052180;28;20492;-91
2022/01/15 01:59:09;;;;;;;81.38;22.17;;;;;;;3.77;89.50;103157.75;5061858;28;20478;-92
2022/01/15 02:01:35;;;;;;;85.13;21.90;;;;;;;3.81;89.24;103162.22;5064017;28;20028;-92
2022/01/15 02:04:01;;;;;;;59.92;16.65;;;;;;;3.84;89.16;103161.44;5051490;28;20484;-91
2022/01/15 02:06:26;;;;;;;68.80;19.15;;;;;;;3.75;89.07;103155.97;5049207;28;20047;-92
2022/01/15 02:08:54;;;;;;;62.75;17.75;;;;;;;3.73;88.75;103147.19;5063913;28;20032;-92
2022/01/15 02:11:19;;;;;;;73.30;20.77;;;;;;;3.64;89.08;103146.94;5048028;28;20028;-91
2022/01/15 02:13:46;;;;;;;66.47;19.63;;;;;;;3.52;88.85;103131.84;5049667;28;20032;-91
2022/01/15 02:16:13;;;;;;;68.95;20.77;;;;;;;3.51;89.13;103145.78;5050047;28;20138;-91
2022/01/15 02:18:39;;;;;;;66.40;18.90;;;;;;;3.52;89.53;103144.91;5063935;28;20031;-92
2022/01/15 02:23:33;;;;;;;58.72;18.48;;;;;;;3.50;89.25;103147.50;5063781;28;20949;-91
2022/01/15 02:23:55;;;;;;;63.65;19.13;;;;;;;3.50;89.68;103144.00;5066937;28;20032;-91
2022/01/15 02:26:25;;;;;;;68.90;20.38;;;;;;;3.56;89.60;103138.94;5054577;28;20039;-91
2022/01/15 02:29:00;;;;;;;61.58;16.40;;;;;;;3.62;88.93;103141.69;5055150;28;20584;-92
2022/01/15 02:31:27;;;;;;;78.95;21.67;;;;;;;3.54;89.09;103138.91;5051796;28;20044;-92
2022/01/15 02:33:55;;;;;;;81.95;20.90;;;;;;;3.54;89.53;103144.13;5054996;28;20029;-91
2022/01/15 02:36:27;;;;;;;78.70;22.25;;;;;;;3.60;89.45;103142.50;5057640;28;20028;-92
2022/01/15 02:38:53;;;;;;;80.22;22.77;;;;;;;3.57;89.54;103130.22;5054375;28;20606;-92
2022/01/15 02:41:31;;;;;;;81.93;22.05;;;;;;;3.62;89.58;103127.72;5065928;28;20044;-91
2022/01/15 02:44:01;;;;;;;75.57;21.35;;;;;;;3.54;89.49;103125.81;5066299;28;20040;-92
2022/01/15 02:48:55;;;;;;;92.60;24.13;;;;;;;3.49;89.40;103101.25;5065749;28;20097;-92
2022/01/15 02:51:23;;;;;;;84.68;24.13;;;;;;;3.57;89.42;103110.19;5067584;28;20071;-91
2022/01/15 02:53:55;;;;;;;69.43;20.88;;;;;;;3.52;89.39;103087.38;5066068;28;20593;-91
2022/01/15 02:56:26;;;;;;;82.18;23.90;;;;;;;3.61;89.32;103089.34;5066832;28;20392;-91
2022/01/15 02:58:52;;;;;;;93.43;24.60;;;;;;;3.53;89.52;103092.66;5052779;28;20058;-92
2022/01/15 03:01:17;;;;;;;83.53;23.77;;;;;;;3.56;89.47;103086.63;5053267;28;20025;-91
2022/01/15 03:03:43;;;;;;;81.75;25.73;;;;;;;3.53;89.30;103076.94;5065870;28;20406;-93
2022/01/15 03:06:10;;;;;;;91.35;21.70;;;;;;;3.64;88.82;103085.09;5056127;28;20078;-91
2022/01/15 03:08:36;;;;;;;83.00;23.60;;;;;;;3.55;89.22;103080.50;5053688;28;20031;-92
2022/01/15 03:11:02;;;;;;;98.50;24.13;;;;;;;3.51;89.23;103070.81;5054631;28;20714;-91
2022/01/15 03:13:27;;;;;;;90.50;23.88;;;;;;;3.47;89.16;103068.09;5064732;28;20064;-92
2022/01/15 03:15:52;;;;;;;76.45;22.13;;;;;;;3.50;89.57;103065.56;5054352;28;20114;-91
2022/01/15 03:18:18;;;;;;;74.78;22.70;;;;;;;3.50;89.77;103060.34;5057879;28;20035;-92
2022/01/15 03:20:43;;;;;;;80.50;22.10;;;;;;;3.47;89.31;103055.88;5066176;28;20478;-91
2022/01/15 03:23:08;;;;;;;67.63;19.70;;;;;;;3.53;88.87;103063.88;5053411;28;20020;-92
2022/01/15 03:25:34;;;;;;;80.95;21.23;;;;;;;3.49;89.29;103063.75;5053163;28;20029;-92
2022/01/15 03:27:59;;;;;;;81.78;20.92;;;;;;;3.41;89.38;103050.53;5053515;28;20024;-92
2022/01/15 03:30:24;;;;;;;87.55;21.98;;;;;;;3.42;89.78;103040.94;5055136;28;20025;-92
2022/01/15 03:32:50;;;;;;;89.38;23.50;;;;;;;3.43;89.43;103047.94;5053794;28;20056;-91
2022/01/15 03:35:17;;;;;;;87.40;25.27;;;;;;;3.49;89.87;103059.41;5053902;28;20416;-92
2022/01/15 03:37:43;;;;;;;45.83;17.00;;;;;;;3.57;89.01;103063.13;5050528;28;20532;-92
2022/01/15 03:40:11;;;;;;;47.15;14.52;;;;;;;3.51;89.06;103060.34;5053479;28;20029;-92
2022/01/15 03:42:36;;;;;;;66.50;20.05;;;;;;;3.45;89.32;103057.59;5051467;28;20067;-91
2022/01/15 03:45:03;;;;;;;61.30;19.02;;;;;;;3.35;89.63;103057.31;5055398;28;20071;-93
2022/01/15 03:47:29;;;;;;;56.33;19.88;;;;;;;3.39;89.38;103060.03;5053773;28;20055;-92
2022/01/15 03:49:54;;;;;;;61.80;18.80;;;;;;;3.38;89.32;103055.66;5053398;28;20395;-91
2022/01/15 03:52:19;;;;;;;68.20;22.15;;;;;;;3.39;89.13;103054.81;5057915;28;20036;-91
2022/01/15 03:54:45;;;;;;;56.28;18.63;;;;;;;3.39;89.08;103040.84;5051324;28;20063;-92
2022/01/15 03:57:11;;;;;;;43.78;15.07;;;;;;;3.39;89.14;103041.75;5055474;28;20052;-92
2022/01/15 03:59:36;;;;;;;60.00;18.23;;;;;;;3.38;88.93;103037.34;5054869;28;20020;-92
2022/01/15 04:02:02;;;;;;;57.70;17.77;;;;;;;3.32;89.01;103029.38;5054501;28;20036;-92
2022/01/15 04:04:27;;;;;;;51.97;17.13;;;;;;;3.41;89.12;103044.41;5054464;28;20490;-92
2022/01/15 04:06:53;;;;;;;46.55;16.42;;;;;;;3.42;88.91;103035.72;5056340;28;20038;-92
2022/01/15 04:09:18;;;;;;;50.25;16.75;;;;;;;3.39;89.06;103026.03;5052285;28;20025;-92
2022/01/15 04:11:45;;;;;;;49.70;15.82;;;;;;;3.47;88.85;103027.13;5051571;28;20032;-92
2022/01/15 04:14:11;;;;;;;48.38;15.10;;;;;;;3.48;88.77;103028.00;5052014;28;20028;-93
2022/01/15 04:16:36;;;;;;;46.95;15.95;;;;;;;3.41;88.96;103027.00;5066663;28;20363;-92
2022/01/15 04:19:03;;;;;;;50.45;16.70;;;;;;;3.48;88.92;103020.16;5065997;28;20085;-92
2022/01/15 04:21:28;;;;;;;49.95;16.80;;;;;;;3.42;88.95;103002.59;5054934;28;20373;-92
2022/01/15 04:23:54;;;;;;;49.78;17.02;;;;;;;3.44;89.00;103010.47;5056035;28;20094;-91
2022/01/15 04:26:24;;;;;;;45.92;16.10;;;;;;;3.49;88.95;103016.69;5048020;28;20083;-92
2022/01/15 04:28:50;;;;;;;51.08;16.05;;;;;;;3.40;89.14;103006.00;5053790;28;20036;-92
2022/01/15 04:31:17;;;;;;;45.28;15.25;;;;;;;3.42;89.28;103004.34;5054470;28;20029;-92
2022/01/15 04:33:42;;;;;;;47.20;16.90;;;;;;;3.44;89.08;103007.84;5054535;28;20020;-92
2022/01/15 04:36:09;;;;;;;49.40;16.63;;;;;;;3.46;88.98;103003.56;5052947;28;20036;-92
2022/01/15 04:38:37;;;;;;;47.78;15.43;;;;;;;3.51;89.06;103015.91;5055047;28;20081;-92
2022/01/15 04:41:04;;;;;;;49.55;17.35;;;;;;;3.41;88.99;102995.63;5063924;28;20032;-92
2022/01/15 04:43:29;;;;;;;57.13;19.23;;;;;;;3.36;89.23;102988.47;5050657;28;20478;-91
2022/01/15 04:45:55;;;;;;;54.38;16.95;;;;;;;3.45;89.44;102991.31;5054007;28;20028;-92
2022/01/15 04:48:20;;;;;;;52.78;15.75;;;;;;;3.48;89.10;102996.63;5065318;28;20532;-92
2022/01/15 04:50:45;;;;;;;49.17;17.58;;;;;;;3.42;88.75;102984.31;5050275;28;20068;-92
2022/01/15 04:53:11;;;;;;;55.95;18.02;;;;;;;3.44;89.32;102993.06;5049466;28;20155;-91
2022/01/15 04:55:37;;;;;;;58.15;18.55;;;;;;;3.40;89.38;102988.59;5048395;28;20364;-93
2022/01/15 04:58:05;;;;;;;46.67;13.98;;;;;;;3.37;89.27;102980.69;5053073;28;20543;-92
2022/01/15 05:00:31;;;;;;;52.08;17.52;;;;;;;3.43;89.26;102991.28;5049530;28;20027;-92
2022/01/15 05:02:57;;;;;;;56.35;17.63;;;;;;;3.42;89.26;102986.91;5063854;28;20111;-91
2022/01/15 05:05:23;;;;;;;71.45;19.60;;;;;;;3.40;89.21;102977.25;5053092;28;20458;-91
2022/01/15 05:07:49;;;;;;;58.25;17.33;;;;;;;3.45;88.82;102973.00;5054675;28;20628;-91
2022/01/15 05:10:17;;;;;;;62.50;18.95;;;;;;;3.46;89.31;102975.69;5050704;28;20109;-91
2022/01/15 05:12:44;;;;;;;57.20;16.38;;;;;;;3.46;88.92;102977.41;5053068;28;20375;-92
2022/01/15 05:15:14;;;;;;;58.95;16.75;;;;;;;3.46;89.39;102969.56;5050705;28;20388;-92
2022/01/15 05:17:41;;;;;;;52.08;14.88;;;;;;;3.52;89.29;102972.31;5050938;28;20073;-92
2022/01/15 05:20:08;;;;;;;60.88;17.73;;;;;;;3.51;89.12;102974.06;5051404;28;20440;-92
2022/01/15 05:22:34;;;;;;;65.80;18.25;;;;;;;3.48;89.11;102963.50;5052274;28;20034;-92
2022/01/15 05:25:00;;;;;;;55.95;17.67;;;;;;;3.47;88.85;102959.13;5067931;28;20578;-92
2022/01/15 05:27:25;;;;;;;48.22;17.10;;;;;;;3.45;88.51;102959.94;5054180;28;20035;-92
2022/01/15 05:29:51;;;;;;;51.72;17.52;;;;;;;3.36;89.03;102941.41;5051613;28;20432;-92
2022/01/15 05:32:19;;;;;;;53.25;17.00;;;;;;;3.41;89.10;102950.28;5050669;28;20078;-92
2022/01/15 05:34:45;;;;;;;51.55;16.35;;;;;;;3.41;89.10;102945.06;5063634;28;20042;-91
2022/01/15 05:37:10;;;;;;;52.58;18.20;;;;;;;3.40;88.85;102959.84;5064775;28;20471;-92
2022/01/15 05:39:36;;;;;;;49.30;16.23;;;;;;;3.38;89.18;102944.97;5048415;28;20060;-92
2022/01/15 05:42:01;;;;;;;45.17;15.50;;;;;;;3.44;88.95;102939.88;5051307;28;20035;-92
2022/01/15 05:44:26;;;;;;;41.42;14.82;;;;;;;3.42;89.04;102950.31;5049922;28;20810;-91
2022/01/15 05:46:52;;;;;;;47.15;16.80;;;;;;;3.36;89.08;102925.72;5052248;28;20056;-92
2022/01/15 05:49:18;;;;;;;45.22;15.25;;;;;;;3.41;89.35;102934.59;5063886;28;20032;-92
2022/01/15 05:51:43;;;;;;;56.78;18.88;;;;;;;3.33;89.51;102918.72;5054220;28;20111;-91
2022/01/15 05:54:10;;;;;;;57.67;19.58;;;;;;;3.41;89.33;102931.97;5062403;28;20032;-91
2022/01/15 05:56:39;;;;;;;51.92;17.83;;;;;;;3.38;89.18;102919.72;5054332;28;20498;-92
2022/01/15 05:59:04;;;;;;;64.65;20.55;;;;;;;3.39;89.16;102911.00;5062998;28;20070;-92
2022/01/15 06:01:30;;;;;;;61.50;18.45;;;;;;;3.45;89.02;102912.88;5051174;28;20032;-92
2022/01/15 06:03:55;;;;;;;60.00;18.23;;;;;;;3.42;89.03;102910.22;5053030;28;20085;-92
2022/01/15 06:06:21;;;;;;;48.63;18.70;;;;;;;3.45;89.13;102911.16;5051503;28;20471;-91
2022/01/15 06:08:47;;;;;;;42.22;14.07;;;;;;;3.47;88.88;102912.06;5051878;28;20538;-91
2022/01/15 06:11:17;;;;;;;50.83;18.55;;;;;;;3.48;88.84;102912.94;5063490;28;20032;-92
2022/01/15 06:13:46;;;;;;;57.88;16.83;;;;;;;3.47;88.72;102913.81;5062635;28;20468;-91
2022/01/15 06:16:11;;;;;;;62.40;21.05;;;;;;;3.43;89.02;102911.97;5053177;28;20490;-91
2022/01/15 06:18:37;;;;;;;61.42;19.88;;;;;;;3.40;89.09;102906.66;5052981;28;20047;-92
2022/01/15 06:21:02;;;;;;;50.35;14.75;;;;;;;3.47;88.77;102905.97;5063909;28;20025;-92
2022/01/15 06:23:28;;;;;;;57.55;18.70;;;;;;;3.45;89.00;102905.94;5047962;28;20028;-91
2022/01/15 06:25:53;;;;;;;52.55;16.80;;;;;;;3.41;88.87;102891.03;5049384;28;20064;-91
2022/01/15 06:28:18;;;;;;;46.70;15.82;;;;;;;3.46;89.07;102901.59;5064547;28;20422;-92
2022/01/15 06:30:44;;;;;;;58.97;18.02;;;;;;;3.45;89.04;102905.03;5063595;28;20039;-92
2022/01/15 06:33:09;;;;;;;67.63;19.75;;;;;;;3.45;88.90;102905.03;5052225;28;20048;-91
2022/01/15 06:35:34;;;;;;;56.83;16.92;;;;;;;3.46;88.78;102901.59;5055238;28;20028;-91
2022/01/15 06:38:00;;;;;;;70.35;17.17;;;;;;;3.42;89.13;102903.25;5048215;28;20021;-91
2022/01/15 06:40:25;;;;;;;65.90;18.52;;;;;;;3.36;89.05;102892.66;5051270;28;20025;-91
2022/01/15 06:42:50;;;;;;;60.58;19.33;;;;;;;3.36;89.04;102897.88;5062644;28;21910;-91
2022/01/15 06:45:16;;;;;;;73.80;21.08;;;;;;;3.35;89.06;102892.59;5051143;28;20021;-91
2022/01/15 06:47:41;;;;;;;68.50;19.85;;;;;;;3.35;89.57;102890.88;5051057;28;20487;-91
2022/01/15 06:50:08;;;;;;;78.93;21.98;;;;;;;3.33;89.34;102887.34;5054041;28;20406;-92
2022/01/15 06:52:35;;;;;;;97.97;21.02;;;;;;;3.33;89.29;102884.72;5050509;28;20102;-91
2022/01/15 06:55:02;;;;;;;78.53;21.65;;;;;;;3.33;89.65;102889.97;5050329;28;20099;-91
2022/01/15 06:57:28;;;;;;;69.15;18.98;;;;;;;3.31;89.31;102870.72;5049650;28;20024;-91
2022/01/15 06:59:54;;;;;;;87.35;21.45;;;;;;;3.38;89.23;102885.72;5050913;28;20415;-91
2022/01/15 07:02:19;;;;;;;81.45;22.45;;;;;;;3.40;89.38;102890.97;5059909;28;20029;-92
2022/01/15 07:04:45;;;;;;;78.15;20.90;;;;;;;3.39;89.34;102894.44;5048563;28;20025;-91
2022/01/15 07:07:10;;;;;;;84.50;22.67;;;;;;;3.35;88.96;102890.88;5049612;28;20063;-92
2022/01/15 07:09:35;;;;;;;81.45;21.25;;;;;;;3.33;89.44;102892.59;5051150;28;20028;-92
2022/01/15 07:12:01;;;;;;;82.53;19.58;;;;;;;3.29;89.46;102882.91;5053316;28;20055;-91
2022/01/15 07:14:27;;;;;;;102.63;22.95;;;;;;;3.24;89.80;102887.13;5054822;28;20833;-91
2022/01/15 07:16:52;;;;;;;80.32;20.88;;;;;;;3.29;89.64;102895.97;5055144;28;20029;-91
2022/01/15 07:19:17;;;;;;;71.25;20.08;;;;;;;3.33;89.34;102895.19;5058723;28;20103;-91
2022/01/15 07:21:43;;;;;;;76.85;19.33;;;;;;;3.25;89.22;102884.56;5066197;28;20066;-91
2022/01/15 07:24:08;;;;;;;72.03;16.55;;;;;;;3.29;88.93;102890.75;5066596;28;20107;-91
2022/01/15 07:26:34;;;;;;;68.97;18.02;;;;;;;3.27;89.46;102882.00;5051010;28;20040;-91
2022/01/15 07:28:59;;;;;;;93.43;20.67;;;;;;;3.20;89.24;102880.06;5067132;28;20069;-92
2022/01/15 07:31:24;;;;;;;70.07;15.27;;;;;;;3.15;89.38;102884.31;5054713;28;20044;-91
2022/01/15 07:33:50;;;;;;;76.28;15.50;;;;;;;3.14;89.62;102888.66;5055040;28;20542;-91
2022/01/15 07:36:16;;;;;;;106.10;15.77;;;;;;;3.06;89.32;102887.59;5065112;28;20028;-91
2022/01/15 07:38:43;;;;;;;63.90;13.00;;;;;;;3.10;89.45;102885.94;5055651;28;20063;-91
2022/01/15 07:41:12;;;;;;;62.97;13.60;;;;;;;3.09;89.54;102890.28;5053367;28;20037;-92
2022/01/15 07:43:38;;;;;;;60.20;13.38;;;;;;;3.05;89.22;102884.09;5054537;28;20119;-91
2022/01/15 07:46:03;;;;;;;54.58;10.27;;;;;;;3.04;89.17;102879.72;5056311;28;20838;-92
2022/01/15 07:48:28;;;;;;;52.83;11.27;;;;;;;2.98;89.07;102881.28;5054717;28;21122;-91
2022/01/15 07:50:54;;;;;;;65.75;12.63;;;;;;;2.87;88.75;102885.38;5066036;28;20028;-92
2022/01/15 07:53:19;;;;;;;35.58;8.82;;;;;;;2.90;89.11;102885.47;5053474;28;20523;-92
2022/01/15 07:55:45;;;;;;;57.50;11.93;;;;;;;2.81;88.91;102904.41;5054065;28;20028;-91
2022/01/15 07:58:10;;;;;;;79.55;12.80;;;;;;;2.78;89.56;102899.97;5051695;28;20458;-91
2022/01/15 08:00:35;;;;;;;67.47;12.02;;;;;;;2.84;89.31;102901.84;5054726;28;20070;-91
2022/01/15 08:03:01;;;;;;;87.93;13.57;;;;;;;2.77;89.53;102895.59;5064383;28;20035;-92
2022/01/15 08:05:26;;;;;;;91.97;14.20;;;;;;;2.83;89.36;102894.00;5053240;28;20038;-92
2022/01/15 08:07:55;;;;;;;63.40;13.50;;;;;;;2.69;88.95;102877.97;5055802;28;20422;-91
2022/01/15 08:10:20;;;;;;;58.38;11.15;;;;;;;2.83;89.20;102889.66;5052792;28;20494;-91
2022/01/15 08:12:51;;;;;;;57.78;12.02;;;;;;;2.83;89.10;102876.59;5064334;28;20024;-91
2022/01/15 08:15:18;;;;;;;54.28;11.32;;;;;;;2.85;89.10;102882.75;5053144;28;20035;-92
2022/01/15 08:17:44;;;;;;;64.72;10.90;;;;;;;2.84;89.11;102888.78;5065624;28;20035;-91
2022/01/15 08:20:10;;;;;;;82.78;11.93;;;;;;;2.88;88.93;102887.16;5066130;28;20032;-91
2022/01/15 08:22:36;;;;;;;84.35;13.55;;;;;;;2.84;89.10;102883.56;5053531;28;20391;-92
2022/01/15 08:25:01;;;;;;;81.63;14.35;;;;;;;2.76;88.81;102880.78;5053112;28;20037;-91
2022/01/15 08:27:26;;;;;;;63.20;13.65;;;;;;;2.66;89.13;102893.56;5049720;28;20138;-91
2022/01/15 08:29:52;;;;;;;46.53;10.80;;;;;;;2.67;89.01;102892.72;5051518;28;20036;-92
2022/01/15 08:32:17;;;;;;;40.78;12.60;;;;;;;2.56;89.12;102876.78;5049434;28;20037;-91
2022/01/15 08:34:43;;;;;;;49.58;11.38;;;;;;;2.64;89.23;102882.19;5044524;28;20037;-91
2022/01/15 08:37:09;;;;;;;45.55;14.77;;;;;;;2.69;89.47;102880.59;5044132;28;20020;-91
2022/01/15 08:39:35;;;;;;;63.28;14.18;;;;;;;2.72;88.71;102875.44;5042049;28;20104;-91
2022/01/15 08:42:02;;;;;;;96.55;14.80;;;;;;;2.69;88.99;102877.97;5043615;28;20028;-91
2022/01/15 08:44:28;;;;;;;100.68;16.83;;;;;;;2.70;88.94;102880.63;5044754;28;20025;-91
2022/01/15 08:46:53;;;;;;;48.28;13.68;;;;;;;2.67;89.08;102875.34;5042339;28;20214;-91
2022/01/15 08:49:19;;;;;;;59.90;13.27;;;;;;;2.73;88.81;102879.81;5044604;28;20041;-91
2022/01/15 08:51:45;;;;;;;54.70;11.45;;;;;;;2.69;88.95;102881.47;5042026;28;20084;-91
2022/01/15 08:54:11;;;;;;;94.43;15.50;;;;;;;2.52;88.62;102896.72;5042209;28;20480;-92
2022/01/15 08:56:36;;;;;;;55.72;14.90;;;;;;;2.21;89.40;102874.13;5042921;28;20472;-91
2022/01/15 08:59:03;;;;;;;64.80;16.27;;;;;;;2.38;89.52;102882.44;5043661;28;20029;-92
2022/01/15 09:01:30;;;;;;;62.17;15.70;;;;;;;2.44;89.61;102877.34;5043303;28;20056;-91
2022/01/15 09:03:58;;;;;;;67.40;15.77;;;;;;;2.55;89.16;102881.13;5043411;28;20029;-92
2022/01/15 09:06:24;;;;;;;75.32;15.57;;;;;;;2.63;88.77;102878.72;5043881;28;20071;-91
2022/01/15 09:08:50;;;;;;;65.80;15.57;;;;;;;2.66;88.75;102876.19;5041966;28;20528;-92
2022/01/15 09:11:15;;;;;;;59.78;15.13;;;;;;;2.66;88.75;102877.88;5042307;28;20091;-92
2022/01/15 09:13:41;;;;;;;46.85;13.43;;;;;;;2.72;88.67;102883.28;5042388;28;20036;-92
2022/01/15 09:16:07;;;;;;;37.20;11.57;;;;;;;2.70;88.60;102875.38;5042302;28;20028;-92
2022/01/15 09:18:34;;;;;;;51.03;15.98;;;;;;;2.68;88.78;102874.47;5044134;28;20106;-91
2022/01/15 09:21:00;;;;;;;62.50;17.40;;;;;;;2.69;88.67;102872.75;5042670;28;20032;-91
2022/01/15 09:23:25;;;;;;;33.95;13.65;;;;;;;2.76;88.68;102869.47;5041557;28;20518;-91
2022/01/15 09:25:52;;;;;;;63.15;16.00;;;;;;;2.75;88.64;102862.44;5042554;28;20451;-92
2022/01/15 09:31:01;;;;;;;49.20;16.50;;;;;;;2.68;87.81;102858.81;5043505;28;20055;-92
2022/01/15 09:33:27;;;;;;;43.90;14.57;;;;;;;2.64;88.38;102846.53;5049751;28;20491;-91
2022/01/15 09:35:52;;;;;;;33.92;12.95;;;;;;;2.52;88.15;102852.34;5051049;28;20031;-92
2022/01/15 09:38:17;;;;;;;39.90;15.75;;;;;;;2.52;88.20;102860.16;5053809;28;20416;-92
2022/01/15 09:40:44;;;;;;;39.50;14.07;;;;;;;2.49;88.53;102849.63;5063891;28;20081;-92
2022/01/15 09:43:10;;;;;;;51.42;18.15;;;;;;;2.49;89.03;102843.53;5064220;28;20060;-92
2022/01/15 09:45:35;;;;;;;40.53;13.40;;;;;;;2.53;88.64;102841.03;5063426;28;20462;-92
2022/01/15 09:48:04;;;;;;;46.22;16.67;;;;;;;2.58;88.63;102830.72;5064575;28;20028;-92
2022/01/15 09:50:32;;;;;;;44.47;15.32;;;;;;;2.78;88.70;102849.47;5063934;28;20424;-90
2022/01/15 09:52:58;;;;;;;48.30;17.13;;;;;;;2.81;88.60;102842.59;5052441;28;20111;-91
2022/01/15 09:55:24;;;;;;;45.58;16.90;;;;;;;2.87;87.95;102844.47;5049609;28;20453;-92
2022/01/15 09:57:52;;;;;;;43.08;14.77;;;;;;;2.91;88.03;102851.53;5050997;28;20087;-92
2022/01/15 10:00:20;;;;;;;47.60;15.77;;;;;;;2.72;88.43;102850.22;5063694;28;20059;-92
2022/01/15 10:02:47;;;;;;;50.03;17.52;;;;;;;2.75;88.08;102852.00;5049872;28;20062;-92
2022/01/15 10:05:14;;;;;;;49.15;17.00;;;;;;;2.62;88.17;102855.19;5054438;28;20025;-92
2022/01/15 10:07:53;;;;;;;31.33;14.13;;;;;;;2.60;88.30;102857.72;5055238;28;20024;-91
2022/01/15 10:10:20;;;;;;;41.20;15.73;;;;;;;2.30;88.97;102856.13;5048385;28;21630;-92
2022/01/15 10:12:46;;;;;;;80.35;23.35;;;;;;;2.09;89.72;102852.91;5053393;28;20023;-92
2022/01/15 10:15:12;;;;;;;34.90;14.48;;;;;;;2.36;89.21;102860.59;5062779;28;20028;-92
2022/01/15 10:17:39;;;;;;;51.20;18.67;;;;;;;2.44;89.00;102869.53;5051294;28;20035;-92
2022/01/15 10:20:18;;;;;;;47.13;18.10;;;;;;;2.41;89.54;102856.38;5050579;28;20498;-92
2022/01/15 10:22:48;;;;;;;40.15;14.25;;;;;;;2.41;89.30;102845.06;5063134;28;20055;-91
2022/01/15 10:25:21;;;;;;;44.83;17.10;;;;;;;2.51;89.00;102847.06;5050757;28;20445;-92
2022/01/15 10:27:54;;;;;;;33.40;12.15;;;;;;;2.70;88.62;102857.09;5051182;28;20391;-92
2022/01/15 10:30:21;;;;;;;55.22;18.48;;;;;;;2.79;88.70;102859.94;5063422;28;20488;-92
2022/01/15 10:33:02;;;;;;;43.45;14.82;;;;;;;2.88;88.16;102851.44;5063701;28;20457;-92
2022/01/15 10:35:36;;;;;;;44.60;16.95;;;;;;;2.87;88.25;102836.63;5053988;28;20475;-92
2022/01/15 10:38:06;;;;;;;40.80;14.38;;;;;;;2.99;88.00;102836.06;5053235;28;20128;-91
2022/01/15 10:40:42;;;;;;;53.20;17.45;;;;;;;3.04;87.93;102840.53;5053313;28;20021;-91
2022/01/15 10:43:09;;;;;;;56.70;18.20;;;;;;;3.02;87.92;102823.03;5064496;28;20059;-91
2022/01/15 10:45:49;;;;;;;34.42;13.00;;;;;;;3.17;87.66;102836.47;5055071;28;20036;-92
2022/01/15 10:48:25;;;;;;;50.90;18.02;;;;;;;3.05;87.86;102830.97;5053181;28;20094;-91
2022/01/15 10:50:57;;;;;;;31.17;13.02;;;;;;;3.06;88.00;102837.94;5055530;28;20024;-91
2022/01/15 10:53:34;;;;;;;54.53;17.17;;;;;;;3.13;88.07;102838.97;5051321;28;20020;-91
2022/01/15 10:55:59;;;;;;;42.55;16.30;;;;;;;3.15;87.71;102832.03;5052038;28;20032;-91
2022/01/15 10:58:25;;;;;;;44.10;17.02;;;;;;;3.08;87.60;102823.19;5056308;28;20403;-92
2022/01/15 11:00:52;;;;;;;59.65;20.38;;;;;;;2.82;87.86;102817.34;5054087;28;20024;-91
2022/01/15 11:03:19;;;;;;;45.53;17.45;;;;;;;2.90;88.34;102822.78;5055835;28;20039;-92
2022/01/15 11:05:49;;;;;;;63.47;20.38;;;;;;;2.86;88.60;102826.16;5051939;28;20647;-92
2022/01/15 11:08:26;;;;;;;86.07;22.73;;;;;;;2.80;88.51;102819.06;5055525;28;20486;-91
2022/01/15 11:11:07;;;;;;;62.13;17.05;;;;;;;2.92;88.48;102813.22;5054688;28;20020;-92
2022/01/15 11:13:36;;;;;;;56.35;16.75;;;;;;;3.11;88.67;102811.91;5055151;28;20115;-91
2022/01/15 11:16:05;;;;;;;66.03;20.85;;;;;;;3.18;88.73;102806.88;5055656;28;20029;-91
2022/01/15 11:18:40;;;;;;;64.93;18.13;;;;;;;3.21;88.27;102803.41;5056873;28;20043;-92
2022/01/15 11:21:07;;;;;;;46.80;16.88;;;;;;;3.28;88.02;102803.59;5056175;28;20032;-92
2022/01/15 11:23:34;;;;;;;57.60;17.98;;;;;;;3.33;88.19;102801.97;5050413;28;20059;-92
2022/01/15 11:26:02;;;;;;;57.22;16.58;;;;;;;3.37;87.49;102804.66;5054925;28;20024;-92
2022/01/15 11:28:30;;;;;;;70.57;18.88;;;;;;;3.08;87.07;102807.53;5068761;28;20032;-92
2022/01/15 11:30:58;;;;;;;64.55;17.98;;;;;;;3.02;87.87;102796.91;5051938;28;20191;-91
2022/01/15 11:33:31;;;;;;;51.08;17.30;;;;;;;3.12;88.37;102792.75;5055417;28;20040;-91